createdAt,value
2017-01-18T00:01:55.150Z,1040.059
2017-01-18T00:04:58.495Z,1040.030
2017-01-18T00:08:02.983Z,1040.067
2017-01-18T00:11:06.846Z,1040.127
2017-01-18T00:14:10.644Z,1040.161
2017-01-18T00:17:15.310Z,1040.203
2017-01-18T00:23:22.322Z,1040.331
2017-01-18T00:26:26.359Z,1040.409
2017-01-18T00:29:29.906Z,1040.436
2017-01-18T00:35:37.491Z,1040.500
2017-01-18T00:38:41.032Z,1040.467
2017-01-18T00:59:51.230Z,1040.634
2017-01-18T01:02:55.536Z,1040.620
2017-01-18T01:05:54.092Z,1040.606
2017-01-18T01:08:53.303Z,1040.561
2017-01-18T01:12:04.387Z,1040.508
2017-01-18T01:15:08.972Z,1040.579
2017-01-18T01:18:13.750Z,1040.575
2017-01-18T01:21:18.469Z,1040.527
2017-01-18T01:24:22.441Z,1040.562
2017-01-18T01:27:19.328Z,1040.525
2017-01-18T01:30:32.410Z,1040.594
2017-01-18T01:33:38.287Z,1040.657
2017-01-18T01:36:42.224Z,1040.586
2017-01-18T01:42:51.819Z,1040.607
2017-01-18T01:45:56.249Z,1040.584
2017-01-18T01:48:59.201Z,1040.588
2017-01-18T01:52:03.323Z,1040.558
2017-01-18T01:55:08.255Z,1040.453
2017-01-18T02:01:15.709Z,1040.426
2017-01-18T02:07:23.222Z,1040.356
2017-01-18T02:10:27.778Z,1040.389
2017-01-18T02:13:32.644Z,1040.445
2017-01-18T02:22:45.465Z,1040.364
2017-01-18T02:25:49.212Z,1040.403
2017-01-18T02:28:50.690Z,1040.410
2017-01-18T02:31:54.170Z,1040.368
2017-01-18T02:38:02.365Z,1040.246
2017-01-18T02:41:06.364Z,1040.243
2017-01-18T02:44:09.163Z,1040.201
2017-01-18T02:50:17.292Z,1040.152
2017-01-18T02:53:20.591Z,1040.202
2017-01-18T02:56:24.202Z,1040.154
2017-01-18T02:59:28.377Z,1040.042
2017-01-18T03:02:31.865Z,1039.977
2017-01-18T03:05:35.223Z,1039.979
2017-01-18T03:08:38.964Z,1039.999
2017-01-18T03:11:42.701Z,1039.970
2017-01-18T03:14:46.344Z,1039.991
2017-01-18T03:20:53.319Z,1039.976
2017-01-18T03:23:57.126Z,1039.953
2017-01-18T03:30:05.910Z,1040.011
2017-01-18T03:42:20.384Z,1040.186
2017-01-18T03:45:23.758Z,1040.177
2017-01-18T03:57:40.574Z,1040.264
2017-01-18T04:00:44.212Z,1040.301
2017-01-18T04:03:48.780Z,1040.246
2017-01-18T04:13:00.943Z,1040.164
2017-01-18T04:19:09.139Z,1040.128
2017-01-18T04:25:17.714Z,1039.989
2017-01-18T04:31:23.970Z,1039.875
2017-01-18T04:37:32.144Z,1039.792
2017-01-18T04:40:35.738Z,1039.747
2017-01-18T04:43:39.578Z,1039.754
2017-01-18T04:46:43.203Z,1039.697
2017-01-18T04:49:46.595Z,1039.670
2017-01-18T04:52:50.207Z,1039.633
2017-01-18T04:55:54.820Z,1039.680
2017-01-18T04:58:59.521Z,1039.700
2017-01-18T05:02:02.796Z,1039.724
2017-01-18T05:08:10.583Z,1039.709
2017-01-18T05:11:13.784Z,1039.761
2017-01-18T05:14:17.717Z,1039.775
2017-01-18T05:17:22.771Z,1039.732
2017-01-18T05:20:25.726Z,1039.731
2017-01-18T05:23:29.303Z,1039.728
2017-01-18T05:26:28.009Z,1039.762
2017-01-18T05:29:38.544Z,1039.773
2017-01-18T05:32:42.175Z,1039.679
2017-01-18T05:35:45.714Z,1039.664
2017-01-18T05:38:49.459Z,1039.702
2017-01-18T05:48:02.346Z,1039.707
2017-01-18T05:54:10.257Z,1039.712
2017-01-18T05:57:13.482Z,1039.812
2017-01-18T06:06:27.301Z,1039.828
2017-01-18T06:12:36.491Z,1039.937
2017-01-18T06:18:43.909Z,1039.830
2017-01-18T06:24:52.165Z,1039.902
2017-01-18T06:27:55.404Z,1039.901
2017-01-18T06:30:58.826Z,1039.921
2017-01-18T06:34:02.474Z,1039.991
2017-01-18T06:37:07.216Z,1040.052
2017-01-18T06:40:10.455Z,1040.101
2017-01-18T06:43:13.711Z,1040.136
2017-01-18T06:46:17.550Z,1040.202
2017-01-18T06:52:25.221Z,1040.300
2017-01-18T06:55:27.758Z,1040.321
2017-01-18T07:01:35.349Z,1040.314
2017-01-18T07:10:45.856Z,1040.311
2017-01-18T07:13:49.589Z,1040.344
2017-01-18T07:16:52.350Z,1040.395
2017-01-18T07:19:50.343Z,1040.410
2017-01-18T07:22:55.139Z,1040.360
2017-01-18T07:26:05.851Z,1040.319
2017-01-18T07:32:13.572Z,1040.473
2017-01-18T07:38:20.689Z,1040.486
2017-01-18T07:44:28.519Z,1040.568
2017-01-18T07:47:32.303Z,1040.552
2017-01-18T07:50:36.046Z,1040.604
2017-01-18T07:53:39.380Z,1040.534
2017-01-18T07:56:42.995Z,1040.577
2017-01-18T07:59:47.948Z,1040.583
2017-01-18T08:09:00.512Z,1040.619
2017-01-18T08:12:03.928Z,1040.678
2017-01-18T08:18:11.643Z,1040.658
2017-01-18T08:21:16.577Z,1040.648
2017-01-18T08:24:20.331Z,1040.645
2017-01-18T08:33:32.918Z,1040.866
2017-01-18T08:36:36.586Z,1040.902
2017-01-18T08:39:40.561Z,1040.936
2017-01-18T08:45:48.398Z,1040.880
2017-01-18T08:48:52.298Z,1040.828
2017-01-18T08:51:56.996Z,1040.804
2017-01-18T08:58:05.334Z,1040.889
2017-01-18T09:01:09.950Z,1040.925
2017-01-18T09:04:13.801Z,1040.947
2017-01-18T09:13:25.611Z,1040.998
2017-01-18T09:16:28.913Z,1040.984
2017-01-18T09:19:33.949Z,1040.979
2017-01-18T09:22:38.759Z,1041.038
2017-01-18T09:25:43.658Z,1041.082
2017-01-18T09:28:47.093Z,1041.081
2017-01-18T09:31:51.150Z,1041.085
2017-01-18T09:34:54.544Z,1041.056
2017-01-18T09:37:53.293Z,1041.055
2017-01-18T09:44:06.768Z,1041.022
2017-01-18T09:47:10.649Z,1041.041
2017-01-18T09:59:29.794Z,1040.997
2017-01-18T10:02:33.337Z,1040.986
2017-01-18T10:05:38.161Z,1040.996
2017-01-18T10:08:41.718Z,1040.988
2017-01-18T10:14:50.426Z,1040.997
2017-01-18T10:17:53.750Z,1040.961
2017-01-18T10:20:56.980Z,1040.919
2017-01-18T10:24:00.781Z,1040.909
2017-01-18T10:30:08.596Z,1040.915
2017-01-18T10:33:12.235Z,1040.827
2017-01-18T10:36:15.919Z,1040.762
2017-01-18T10:48:31.178Z,1040.694
2017-01-18T10:54:37.840Z,1040.649
2017-01-18T10:57:41.440Z,1040.673
2017-01-18T11:06:51.867Z,1040.774
2017-01-18T11:09:55.475Z,1040.806
2017-01-18T11:19:07.865Z,1040.767
2017-01-18T11:22:11.678Z,1040.732
2017-01-18T11:25:16.126Z,1040.721
2017-01-18T11:28:19.719Z,1040.669
2017-01-18T11:31:23.348Z,1040.658
2017-01-18T11:34:27.001Z,1040.651
2017-01-18T11:37:31.604Z,1040.653
2017-01-18T11:46:41.418Z,1040.628
2017-01-18T11:52:48.338Z,1040.534
2017-01-18T12:08:08.922Z,1040.376
2017-01-18T12:11:12.531Z,1040.394
2017-01-18T12:17:15.898Z,1040.356
2017-01-18T12:26:35.249Z,1040.332
2017-01-18T12:32:43.021Z,1040.225
2017-01-18T12:35:47.565Z,1040.179
2017-01-18T12:48:04.797Z,1040.117
2017-01-18T12:57:17.130Z,1040.000
2017-01-18T13:03:26.779Z,1039.983
2017-01-18T13:06:30.666Z,1039.976
2017-01-18T13:09:34.703Z,1039.983
2017-01-18T13:12:39.654Z,1039.987
2017-01-18T13:15:43.943Z,1039.948
2017-01-18T13:18:47.814Z,1039.924
2017-01-18T13:21:51.754Z,1039.839
2017-01-18T13:24:55.663Z,1039.810
2017-01-18T13:28:00.751Z,1039.826
2017-01-18T13:34:09.394Z,1039.945
2017-01-18T13:40:17.297Z,1039.961
2017-01-18T13:43:20.769Z,1039.973
2017-01-18T13:46:24.064Z,1039.960
2017-01-18T13:52:32.739Z,1039.994
2017-01-18T13:58:41.361Z,1039.998
2017-01-18T14:01:45.133Z,1039.977
2017-01-18T14:04:49.069Z,1039.994
2017-01-18T14:07:52.628Z,1040.009
2017-01-18T14:10:56.327Z,1040.018
2017-01-18T14:13:59.992Z,1040.028
2017-01-18T14:23:11.824Z,1040.027
2017-01-18T14:35:25.648Z,1040.077
2017-01-18T14:44:37.323Z,1039.956
2017-01-18T14:47:41.399Z,1039.973
2017-01-18T14:50:45.548Z,1040.002
2017-01-18T14:53:49.027Z,1040.016
2017-01-18T14:56:52.957Z,1040.055
2017-01-18T14:59:57.055Z,1040.026
2017-01-18T15:03:01.051Z,1040.064
2017-01-18T15:06:04.632Z,1040.082
2017-01-18T15:09:08.766Z,1040.123
2017-01-18T15:45:55.080Z,1040.194
2017-01-18T15:48:53.133Z,1040.219
2017-01-18T16:01:12.972Z,1040.244
2017-01-18T16:04:16.206Z,1040.221
2017-01-18T16:13:26.782Z,1040.211
2017-01-18T16:16:29.572Z,1040.186
2017-01-18T16:19:33.763Z,1040.198
2017-01-18T16:25:41.937Z,1040.218
2017-01-18T16:28:45.129Z,1040.212
2017-01-18T16:37:56.890Z,1040.157
2017-01-18T16:44:04.493Z,1040.183
2017-01-18T16:47:09.408Z,1040.167
2017-01-18T16:50:13.328Z,1040.169
2017-01-18T16:53:17.213Z,1040.153
2017-01-18T16:56:20.749Z,1040.160
2017-01-18T16:59:24.595Z,1040.152
2017-01-18T17:02:28.865Z,1040.192
2017-01-18T17:11:42.051Z,1040.178
2017-01-18T17:14:47.200Z,1040.177
2017-01-18T17:17:52.246Z,1040.189
2017-01-18T17:27:05.021Z,1040.110
2017-01-18T17:30:08.484Z,1040.110
2017-01-18T17:33:12.363Z,1040.095
2017-01-18T17:36:15.570Z,1040.084
2017-01-18T17:39:20.282Z,1040.037
2017-01-18T17:42:24.877Z,1040.039
2017-01-18T17:45:28.668Z,1040.014
2017-01-18T17:54:41.690Z,1039.841
2017-01-18T18:00:46.500Z,1039.722
2017-01-18T18:03:50.292Z,1039.767
2017-01-18T18:13:00.594Z,1039.853
2017-01-18T18:16:04.082Z,1039.900
2017-01-18T18:22:12.076Z,1039.804
2017-01-18T18:28:19.179Z,1039.779
2017-01-18T18:31:23.447Z,1039.751
2017-01-18T18:34:22.560Z,1039.707
2017-01-18T18:37:33.407Z,1039.645
2017-01-18T18:40:37.257Z,1039.599
2017-01-18T18:43:40.937Z,1039.579
2017-01-18T18:46:39.641Z,1039.584
2017-01-18T18:49:49.600Z,1039.628
2017-01-18T18:52:53.966Z,1039.677
2017-01-18T18:55:57.319Z,1039.703
2017-01-18T18:59:02.351Z,1039.698
2017-01-18T19:02:06.081Z,1039.610
2017-01-18T19:05:09.846Z,1039.547
2017-01-18T19:08:07.654Z,1039.548
2017-01-18T19:11:18.283Z,1039.580
2017-01-18T19:14:22.180Z,1039.554
2017-01-18T19:20:30.254Z,1039.542
2017-01-18T19:23:34.031Z,1039.542
2017-01-18T19:26:39.273Z,1039.565
2017-01-18T19:29:37.026Z,1039.539
2017-01-18T19:32:47.690Z,1039.564
2017-01-18T19:35:51.146Z,1039.521
2017-01-18T19:38:56.285Z,1039.443
2017-01-18T19:41:59.293Z,1039.416
2017-01-18T19:45:02.943Z,1039.423
2017-01-18T19:48:06.892Z,1039.529
2017-01-18T19:51:10.866Z,1039.592
2017-01-18T19:57:19.002Z,1039.572
2017-01-18T20:03:26.410Z,1039.564
2017-01-18T20:09:35.128Z,1039.500
2017-01-18T20:12:38.852Z,1039.495
2017-01-18T20:18:47.985Z,1039.438
2017-01-18T20:21:51.463Z,1039.396
2017-01-18T20:24:56.350Z,1039.389
2017-01-18T20:28:00.248Z,1039.407
2017-01-18T20:30:59.397Z,1039.436
2017-01-18T20:34:08.426Z,1039.434
2017-01-18T20:40:18.384Z,1039.386
2017-01-18T20:43:16.171Z,1039.413
2017-01-18T20:46:26.979Z,1039.417
2017-01-18T20:49:30.850Z,1039.453
2017-01-18T20:52:34.630Z,1039.451
2017-01-18T20:55:38.202Z,1039.417
2017-01-18T20:58:42.037Z,1039.434
2017-01-18T21:01:39.894Z,1039.403
2017-01-18T21:04:50.376Z,1039.351
2017-01-18T21:07:54.263Z,1039.321
2017-01-18T21:14:03.871Z,1039.333
2017-01-18T21:17:07.851Z,1039.431
2017-01-18T21:20:10.871Z,1039.460
2017-01-18T21:23:07.906Z,1039.429
2017-01-18T21:26:18.632Z,1039.446
2017-01-18T21:29:22.873Z,1039.454
2017-01-18T21:32:26.801Z,1039.471
2017-01-18T21:35:31.569Z,1039.528
2017-01-18T21:38:35.143Z,1039.542
2017-01-18T21:41:33.134Z,1039.543
2017-01-18T21:44:43.808Z,1039.505
2017-01-18T21:47:47.606Z,1039.465
2017-01-18T21:50:52.708Z,1039.432
2017-01-18T21:53:56.831Z,1039.419
2017-01-18T22:00:05.189Z,1039.392
2017-01-18T22:06:11.085Z,1039.373
2017-01-18T22:12:19.969Z,1039.396
2017-01-18T22:18:28.790Z,1039.453
2017-01-18T22:24:36.600Z,1039.553
2017-01-18T22:30:44.254Z,1039.486
2017-01-18T22:36:53.906Z,1039.503
2017-01-18T22:39:57.741Z,1039.517
2017-01-18T22:43:01.730Z,1039.523
2017-01-18T22:46:05.802Z,1039.558
2017-01-18T22:49:11.075Z,1039.506
2017-01-18T22:52:15.225Z,1039.441
2017-01-18T22:55:18.860Z,1039.490
2017-01-18T22:58:22.162Z,1039.441
2017-01-18T23:01:26.265Z,1039.491
2017-01-18T23:10:39.967Z,1039.401
2017-01-18T23:13:43.560Z,1039.412
2017-01-18T23:16:47.960Z,1039.405
2017-01-18T23:19:51.275Z,1039.381
2017-01-18T23:25:59.913Z,1039.345
2017-01-18T23:29:03.697Z,1039.275
2017-01-18T23:32:08.947Z,1039.318
2017-01-18T23:35:12.409Z,1039.317
2017-01-18T23:38:16.570Z,1039.401
2017-01-18T23:41:20.452Z,1039.390
2017-01-18T23:44:24.153Z,1039.368
2017-01-18T23:47:27.875Z,1039.370
2017-01-18T23:50:32.080Z,1039.330
2017-01-18T23:56:39.885Z,1039.354
2017-01-18T23:59:43.555Z,1039.264
